Time;durP1;ratioP1;P1;durP2;ratioP2;P2;SDS_P1;SDS_P2;PMS_P1;PMS_P2;Temp;Humidity;BMP_temperature;BMP_pressure;BME280_temperature;BME280_humidity;BME280_pressure;Samples;Min_cycle;Max_cycle;Signal;HPM_P1;HPM_P2
2024/02/22 00:02:07;;;;;;;30.10;16.60;;;;;;;7.32;100.00;100103.73;107132;1257;98025;-80
2024/02/22 00:04:52;;;;;;;32.40;16.30;;;;;;;7.32;100.00;100102.80;107010;1257;97954;-80
2024/02/22 00:07:38;;;;;;;31.20;17.70;;;;;;;7.33;100.00;100105.19;106973;1262;97983;-80
2024/02/22 00:10:28;;;;;;;27.80;15.40;;;;;;;7.33;100.00;100099.13;106999;1263;101315;-79
2024/02/22 00:13:14;;;;;;;23.80;14.60;;;;;;;7.33;100.00;100093.27;106913;1261;99112;-80
2024/02/22 00:16:03;;;;;;;30.10;16.10;;;;;;;7.32;100.00;100090.58;107041;1258;97946;-80
2024/02/22 00:18:49;;;;;;;28.50;16.30;;;;;;;7.33;100.00;100085.46;107275;1258;96509;-80
2024/02/22 00:21:35;;;;;;;24.50;15.90;;;;;;;7.34;100.00;100083.60;107038;1258;97801;-77
2024/02/22 00:24:21;;;;;;;27.30;15.20;;;;;;;7.34;100.00;100083.27;105540;1262;101427;-78
2024/02/22 00:27:07;;;;;;;28.80;15.60;;;;;;;7.33;100.00;100080.52;106132;1261;99124;-79
2024/02/22 00:29:52;;;;;;;32.10;15.90;;;;;;;7.33;100.00;100078.77;106094;1260;99005;-78
2024/02/22 00:32:39;;;;;;;33.00;16.80;;;;;;;7.32;100.00;100072.48;105876;1261;98111;-79
2024/02/22 00:35:24;;;;;;;28.20;15.40;;;;;;;7.32;100.00;100071.42;105970;1263;98721;-78
2024/02/22 00:38:09;;;;;;;27.20;14.60;;;;;;;7.33;100.00;100065.46;106104;1263;102683;-79
2024/02/22 00:40:55;;;;;;;28.50;15.70;;;;;;;7.32;100.00;100061.08;106090;1262;100477;-78
2024/02/22 00:43:40;;;;;;;25.40;14.40;;;;;;;7.32;100.00;100060.05;106188;1261;99021;-79
2024/02/22 00:46:26;;;;;;;29.80;15.40;;;;;;;7.32;100.00;100058.91;105951;1263;98573;-79
2024/02/22 00:49:12;;;;;;;28.50;15.70;;;;;;;7.32;100.00;100048.71;106128;1261;98496;-80
2024/02/22 00:51:57;;;;;;;28.20;14.90;;;;;;;7.31;100.00;100043.77;106110;1262;101382;-78
2024/02/22 00:54:44;;;;;;;28.90;15.20;;;;;;;7.31;100.00;100043.84;106079;1262;99981;-79
2024/02/22 00:57:29;;;;;;;27.30;14.30;;;;;;;7.28;100.00;100043.95;106056;1263;97987;-78
2024/02/22 01:00:15;;;;;;;29.30;14.80;;;;;;;7.26;100.00;100043.66;106284;1262;97975;-79
2024/02/22 01:03:01;;;;;;;27.90;15.20;;;;;;;7.24;100.00;100038.71;106612;1262;97940;-79
2024/02/22 01:05:47;;;;;;;31.30;14.30;;;;;;;7.24;100.00;100041.45;106074;1260;102643;-78
2024/02/22 01:08:33;;;;;;;28.20;14.90;;;;;;;7.22;100.00;100036.68;105970;1263;99060;-78
2024/02/22 01:11:18;;;;;;;24.40;13.70;;;;;;;7.21;100.00;100036.61;105925;1257;107823;-78
2024/02/22 01:14:04;;;;;;;27.70;14.50;;;;;;;7.20;100.00;100031.73;105513;1263;97852;-78
2024/02/22 01:16:51;;;;;;;24.00;12.90;;;;;;;7.20;100.00;100030.40;106199;1262;99266;-78
2024/02/22 01:19:37;;;;;;;27.90;14.30;;;;;;;7.20;100.00;100030.13;106067;1257;101311;-79
2024/02/22 01:22:22;;;;;;;27.30;13.50;;;;;;;7.20;100.00;100030.13;105970;1266;100427;-79
2024/02/22 01:25:10;;;;;;;24.50;13.20;;;;;;;7.20;100.00;100028.20;106334;1263;97884;-79
2024/02/22 01:27:56;;;;;;;31.60;13.60;;;;;;;7.19;100.00;100019.63;106548;1257;98005;-80
2024/02/22 01:30:42;;;;;;;24.90;13.00;;;;;;;7.19;100.00;100016.29;106592;1257;98467;-79
2024/02/22 01:33:28;;;;;;;23.10;13.00;;;;;;;7.18;100.00;100013.73;107121;1262;102079;-80
2024/02/22 01:36:13;;;;;;;25.60;13.20;;;;;;;7.17;100.00;100007.45;106522;1257;100561;-79
2024/02/22 01:39:00;;;;;;;21.00;12.90;;;;;;;7.16;100.00;100003.70;106186;1258;167692;-79
2024/02/22 01:41:48;;;;;;;34.20;15.40;;;;;;;7.14;100.00;99997.45;106140;1262;97971;-79
2024/02/22 01:44:33;;;;;;;24.40;12.90;;;;;;;7.12;100.00;99989.72;106452;1262;97964;-80
2024/02/22 01:47:19;;;;;;;22.80;12.80;;;;;;;7.10;100.00;99988.23;107056;1262;101401;-80
2024/02/22 01:50:08;;;;;;;27.00;13.30;;;;;;;7.07;100.00;99985.97;107030;1262;99795;-81
2024/02/22 01:52:53;;;;;;;23.40;13.00;;;;;;;7.02;100.00;99983.06;106979;1258;97748;-80
2024/02/22 01:55:39;;;;;;;22.70;13.00;;;;;;;6.99;100.00;99972.80;107071;1257;97840;-80
2024/02/22 01:58:25;;;;;;;23.80;13.50;;;;;;;6.97;100.00;99968.00;106870;1257;98514;-80
2024/02/22 02:01:11;;;;;;;22.80;13.30;;;;;;;6.95;100.00;99966.13;107128;1261;101368;-80
2024/02/22 02:03:58;;;;;;;23.60;12.80;;;;;;;6.92;100.00;99961.76;107113;1257;99743;-81
2024/02/22 02:06:44;;;;;;;30.60;14.90;;;;;;;6.88;100.00;99963.31;106848;1257;98985;-80
2024/02/22 02:09:30;;;;;;;28.00;14.30;;;;;;;6.82;100.00;99958.11;106951;1262;98081;-80
2024/02/22 02:12:23;;;;;;;24.10;14.20;;;;;;;6.78;100.00;99954.50;107101;1263;97961;-81
2024/02/22 02:15:09;;;;;;;25.00;13.70;;;;;;;6.75;100.00;99946.38;106873;1263;101330;-78
2024/02/22 02:17:54;;;;;;;27.40;14.60;;;;;;;6.71;100.00;99943.48;106077;1262;100385;-78
2024/02/22 02:20:50;;;;;;;27.30;14.60;;;;;;;6.69;100.00;99943.36;106165;1271;99575;-78
2024/02/22 02:23:48;;;;;;;27.10;13.90;;;;;;;6.68;100.00;99945.77;106062;1263;97952;-78
2024/02/22 02:26:33;;;;;;;26.70;14.30;;;;;;;6.64;100.00;99943.61;106164;1262;99610;-79
2024/02/22 02:29:19;;;;;;;23.60;14.40;;;;;;;6.60;100.00;99938.20;106200;1262;102712;-79
2024/02/22 02:32:07;;;;;;;33.10;15.20;;;;;;;6.57;100.00;99935.21;106093;1258;99674;-78
2024/02/22 02:34:53;;;;;;;28.80;14.20;;;;;;;6.52;100.00;99934.75;106070;1261;97963;-79
2024/02/22 02:37:38;;;;;;;26.80;13.70;;;;;;;6.48;100.00;99931.15;106143;1263;97969;-79
2024/02/22 02:40:24;;;;;;;30.00;13.50;;;;;;;6.46;100.00;99921.65;106152;1257;98470;-79
2024/02/22 02:43:12;;;;;;;28.00;14.80;;;;;;;6.42;100.00;99916.02;106254;1257;102166;-79
2024/02/22 02:45:58;;;;;;;25.60;14.70;;;;;;;6.37;100.00;99911.27;106026;1257;99758;-79
2024/02/22 02:48:44;;;;;;;28.30;14.30;;;;;;;6.33;100.00;99907.74;106050;1257;98513;-79
2024/02/22 02:51:30;;;;;;;26.70;16.10;;;;;;;6.31;100.00;99895.92;106095;1257;97879;-79
2024/02/22 02:54:15;;;;;;;27.00;14.00;;;;;;;6.30;100.00;99888.79;106123;1263;97871;-79
2024/02/22 02:57:01;;;;;;;23.00;13.10;;;;;;;6.27;100.00;99888.02;106142;1257;101445;-78
2024/02/22 02:59:46;;;;;;;27.20;13.30;;;;;;;6.22;100.00;99886.90;106105;1264;100419;-82
2024/02/22 03:02:33;;;;;;;31.00;14.30;;;;;;;6.17;100.00;99883.77;105916;1257;98069;-79
2024/02/22 03:05:18;;;;;;;29.50;14.50;;;;;;;6.14;100.00;99875.77;106144;1263;97953;-79
2024/02/22 03:08:05;;;;;;;35.40;16.30;;;;;;;6.11;100.00;99871.45;106129;1257;97871;-78
2024/02/22 03:10:50;;;;;;;25.00;14.80;;;;;;;6.05;100.00;99868.69;106164;1257;101423;-79
2024/02/22 03:13:36;;;;;;;31.60;14.60;;;;;;;6.02;100.00;99863.91;106216;1262;99155;-79
2024/02/22 03:16:24;;;;;;;28.30;14.60;;;;;;;6.00;100.00;99861.90;106009;1262;97960;-79
2024/02/22 03:19:10;;;;;;;29.80;14.70;;;;;;;5.97;100.00;99861.20;105780;1257;97959;-78
2024/02/22 03:21:55;;;;;;;23.50;13.30;;;;;;;5.94;100.00;99855.84;106109;1263;97973;-79
2024/02/22 03:24:41;;;;;;;32.20;14.30;;;;;;;5.92;100.00;99854.85;106196;1257;101347;-79
2024/02/22 03:27:27;;;;;;;27.60;14.70;;;;;;;5.89;100.00;99851.33;106253;1257;99275;-79
2024/02/22 03:30:14;;;;;;;25.50;14.40;;;;;;;5.87;100.00;99849.27;105892;1257;98550;-78
2024/02/22 03:33:01;;;;;;;24.50;13.80;;;;;;;5.85;100.00;99846.81;106155;1264;99246;-79
2024/02/22 03:35:47;;;;;;;25.70;14.50;;;;;;;5.84;100.00;99844.88;106202;1257;98869;-79
2024/02/22 03:38:33;;;;;;;27.50;12.80;;;;;;;5.84;100.00;99841.39;105971;1263;101443;-80
2024/02/22 03:41:26;;;;;;;24.50;11.70;;;;;;;5.82;100.00;99837.67;106189;1263;99206;-79
2024/02/22 03:44:14;;;;;;;23.50;12.60;;;;;;;5.80;100.00;99834.02;108348;1262;97835;-80
2024/02/22 03:47:00;;;;;;;27.30;12.80;;;;;;;5.76;100.00;99829.86;106231;1257;97974;-79
2024/02/22 03:49:45;;;;;;;20.50;11.70;;;;;;;5.76;100.00;99824.41;106315;1257;98049;-80
2024/02/22 03:52:31;;;;;;;28.10;11.90;;;;;;;5.75;100.00;99822.21;106000;1263;102581;-79
2024/02/22 03:55:17;;;;;;;22.20;11.80;;;;;;;5.74;100.00;99822.73;106168;1262;99083;-80
2024/02/22 03:58:06;;;;;;;30.00;13.30;;;;;;;5.73;100.00;99824.63;106110;1257;97986;-79
2024/02/22 04:00:52;;;;;;;21.30;12.30;;;;;;;5.71;100.00;99820.15;106155;1261;97956;-79
2024/02/22 04:03:37;;;;;;;23.80;12.60;;;;;;;5.71;100.00;99814.42;106114;1261;97962;-79
2024/02/22 04:06:23;;;;;;;24.20;12.10;;;;;;;5.69;100.00;99812.42;106063;1262;102605;-79
2024/02/22 04:09:09;;;;;;;22.60;12.10;;;;;;;5.69;100.00;99813.33;106325;1264;99255;-80
2024/02/22 04:11:55;;;;;;;22.20;12.60;;;;;;;5.70;100.00;99813.58;106079;1257;98058;-79
2024/02/22 04:14:40;;;;;;;26.70;13.30;;;;;;;5.71;100.00;99808.33;106131;1261;97987;-78
2024/02/22 04:17:26;;;;;;;25.70;13.90;;;;;;;5.71;100.00;99802.12;106056;1262;97989;-78
2024/02/22 04:20:11;;;;;;;24.40;13.00;;;;;;;5.70;100.00;99797.31;106090;1257;101436;-79
2024/02/22 04:22:57;;;;;;;25.80;12.00;;;;;;;5.68;100.00;99796.79;106048;1263;99933;-78
2024/02/22 04:25:44;;;;;;;25.40;12.70;;;;;;;5.67;100.00;99795.86;106138;1261;98048;-80
2024/02/22 04:28:29;;;;;;;23.50;12.10;;;;;;;5.66;100.00;99793.81;106235;1259;98001;-79
2024/02/22 04:31:15;;;;;;;24.10;12.60;;;;;;;5.66;100.00;99792.74;106209;1261;99621;-79
2024/02/22 04:34:00;;;;;;;23.40;12.00;;;;;;;5.65;100.00;99786.35;106335;1257;101338;-79
2024/02/22 04:36:47;;;;;;;25.10;12.80;;;;;;;5.64;100.00;99779.44;106099;1262;100126;-79
2024/02/22 04:39:33;;;;;;;23.70;13.30;;;;;;;5.62;100.00;99775.70;106155;1257;98299;-78
2024/02/22 04:42:18;;;;;;;23.40;13.40;;;;;;;5.62;100.00;99771.33;106113;1264;97890;-79
2024/02/22 04:45:04;;;;;;;23.50;11.80;;;;;;;5.62;100.00;99771.52;106065;1262;97789;-78
2024/02/22 04:47:50;;;;;;;30.20;14.60;;;;;;;5.61;100.00;99767.58;105848;1264;102367;-78
2024/02/22 04:50:36;;;;;;;26.40;12.70;;;;;;;5.59;100.00;99762.77;105795;1264;100599;-78
2024/02/22 04:53:22;;;;;;;26.40;12.70;;;;;;;5.57;100.00;99758.96;106122;1262;98935;-78
2024/02/22 04:56:07;;;;;;;18.60;11.40;;;;;;;5.54;100.00;99751.84;105920;1263;97874;-78
2024/02/22 04:58:53;;;;;;;23.10;12.50;;;;;;;5.51;100.00;99746.83;106218;1257;98479;-78
2024/02/22 05:01:39;;;;;;;22.10;12.80;;;;;;;5.49;100.00;99740.90;106231;1261;103104;-78
2024/02/22 05:04:25;;;;;;;24.70;12.30;;;;;;;5.45;100.00;99735.33;106239;1257;100183;-79
2024/02/22 05:07:10;;;;;;;27.80;12.40;;;;;;;5.42;100.00;99730.56;106133;1262;97996;-79
2024/02/22 05:09:55;;;;;;;26.20;13.00;;;;;;;5.39;100.00;99730.38;106151;1262;97963;-78
2024/02/22 05:12:41;;;;;;;22.70;12.80;;;;;;;5.36;100.00;99728.11;106251;1262;98725;-79
2024/02/22 05:15:27;;;;;;;30.40;14.30;;;;;;;5.35;100.00;99726.60;106627;1257;101384;-79
2024/02/22 05:18:12;;;;;;;23.40;14.00;;;;;;;5.34;100.00;99723.54;107052;1257;99073;-81
2024/02/22 05:20:58;;;;;;;25.90;13.10;;;;;;;5.32;100.00;99725.64;107087;1257;99766;-79
2024/02/22 05:23:44;;;;;;;23.60;14.00;;;;;;;5.30;100.00;99716.00;106030;1263;97983;-78
2024/02/22 05:26:30;;;;;;;31.00;14.00;;;;;;;5.29;100.00;99715.38;106244;1261;96117;-78
2024/02/22 05:29:15;;;;;;;24.40;13.40;;;;;;;5.30;100.00;99712.88;106231;1257;102621;-78
2024/02/22 05:32:01;;;;;;;24.70;12.70;;;;;;;5.30;100.00;99709.63;105856;1257;99088;-78
2024/02/22 05:34:46;;;;;;;24.50;12.60;;;;;;;5.29;100.00;99708.30;106162;1262;98919;-79
2024/02/22 05:37:32;;;;;;;28.50;12.40;;;;;;;5.29;100.00;99701.30;105988;1257;97969;-78
2024/02/22 05:40:17;;;;;;;23.80;13.70;;;;;;;5.28;100.00;99697.95;105963;1258;99528;-79
2024/02/22 05:43:03;;;;;;;26.40;14.30;;;;;;;5.29;100.00;99697.59;106127;1263;102938;-78
2024/02/22 05:45:49;;;;;;;21.00;12.30;;;;;;;5.30;100.00;99697.40;106050;1257;100573;-78
2024/02/22 05:48:35;;;;;;;25.40;12.20;;;;;;;5.32;100.00;99697.15;106177;1257;98006;-78
2024/02/22 05:51:20;;;;;;;24.10;12.90;;;;;;;5.33;100.00;99697.92;106422;1262;97961;-78
2024/02/22 05:54:06;;;;;;;22.30;12.60;;;;;;;5.34;100.00;99697.09;105882;1257;98141;-78
2024/02/22 05:56:52;;;;;;;23.40;13.10;;;;;;;5.35;100.00;99697.15;106128;1257;102673;-79
2024/02/22 05:59:39;;;;;;;27.70;13.80;;;;;;;5.36;100.00;99691.00;106150;1262;99305;-79
2024/02/22 06:02:24;;;;;;;19.80;12.40;;;;;;;5.36;100.00;99690.48;106847;1259;98722;-79
2024/02/22 06:05:09;;;;;;;22.90;12.70;;;;;;;5.38;100.00;99694.41;106559;1257;98066;-80
2024/02/22 06:07:55;;;;;;;25.20;12.90;;;;;;;5.37;100.00;99693.20;106676;1257;97855;-79
2024/02/22 06:10:41;;;;;;;25.80;13.50;;;;;;;5.37;100.00;99692.02;106686;1257;102733;-80
2024/02/22 06:13:26;;;;;;;27.60;12.70;;;;;;;5.37;100.00;99687.04;106689;1257;100578;-80
2024/02/22 06:16:14;;;;;;;23.30;12.30;;;;;;;5.38;100.00;99684.95;106644;1257;98816;-80
2024/02/22 06:19:00;;;;;;;25.20;13.70;;;;;;;5.39;100.00;99680.09;106968;1257;98546;-81
2024/02/22 06:21:45;;;;;;;23.90;13.40;;;;;;;5.41;100.00;99676.86;106587;1257;96317;-79
2024/02/22 06:24:31;;;;;;;25.10;12.90;;;;;;;5.43;100.00;99676.45;106947;1257;102684;-81
2024/02/22 06:27:16;;;;;;;30.30;14.80;;;;;;;5.44;100.00;99675.05;106888;1257;99198;-80
2024/02/22 06:30:06;;;;;;;26.40;14.20;;;;;;;5.45;100.00;99670.48;106090;1260;98306;-78
2024/02/22 06:32:52;;;;;;;26.40;14.20;;;;;;;5.46;100.00;99670.54;106272;1257;98699;-80
2024/02/22 06:35:38;;;;;;;25.20;13.50;;;;;;;5.49;100.00;99670.79;105990;1258;98573;-79
2024/02/22 06:38:23;;;;;;;29.10;14.20;;;;;;;5.52;100.00;99669.38;105777;1261;101383;-78
2024/02/22 06:41:09;;;;;;;26.20;14.80;;;;;;;5.55;100.00;99667.23;105926;1258;99101;-83
2024/02/22 06:43:56;;;;;;;30.80;14.20;;;;;;;5.58;100.00;99658.20;105854;1258;98078;-78
2024/02/22 06:46:43;;;;;;;25.60;15.30;;;;;;;5.61;100.00;99652.27;105893;1259;98027;-78
2024/02/22 06:49:31;;;;;;;27.70;13.70;;;;;;;5.62;100.00;99646.10;106005;1258;97947;-78
2024/02/22 06:52:17;;;;;;;24.90;13.60;;;;;;;5.63;100.00;99640.31;106024;1259;102609;-79
2024/02/22 06:55:03;;;;;;;26.00;14.00;;;;;;;5.65;100.00;99643.21;106025;1257;100464;-79
2024/02/22 06:57:48;;;;;;;27.00;14.40;;;;;;;5.68;100.00;99642.60;106111;1258;98046;-79
2024/02/22 07:00:34;;;;;;;30.10;14.00;;;;;;;5.71;100.00;99641.47;106027;1257;98094;-78
2024/02/22 07:03:19;;;;;;;28.80;14.70;;;;;;;5.73;100.00;99639.09;106016;1262;97969;-79
2024/02/22 07:06:05;;;;;;;25.60;13.60;;;;;;;5.76;100.00;99636.82;105958;1258;101378;-78
2024/02/22 07:08:53;;;;;;;30.30;15.00;;;;;;;5.77;100.00;99634.38;105458;1261;99070;-78
2024/02/22 07:11:38;;;;;;;28.70;14.50;;;;;;;5.80;100.00;99634.55;105209;1262;99052;-78
2024/02/22 07:14:24;;;;;;;25.00;13.50;;;;;;;5.82;100.00;99632.17;105416;1262;97961;-78
2024/02/22 07:17:10;;;;;;;25.50;14.00;;;;;;;5.86;100.00;99634.27;105786;1257;97977;-79
2024/02/22 07:19:55;;;;;;;29.00;14.90;;;;;;;5.88;100.00;99628.49;105773;1257;101439;-78
2024/02/22 07:22:42;;;;;;;30.00;15.00;;;;;;;5.91;100.00;99625.17;106001;1262;99188;-79
2024/02/22 07:25:28;;;;;;;24.60;13.50;;;;;;;5.94;100.00;99624.38;105927;1262;98761;-79
2024/02/22 07:28:15;;;;;;;26.50;13.30;;;;;;;5.98;100.00;99619.20;106569;1257;98019;-79
2024/02/22 07:31:00;;;;;;;23.50;13.10;;;;;;;6.02;100.00;99610.36;105939;1259;97845;-79
2024/02/22 07:33:46;;;;;;;26.40;13.60;;;;;;;6.06;100.00;99605.59;106029;1261;102692;-79
2024/02/22 07:36:34;;;;;;;22.20;13.60;;;;;;;6.11;100.00;99598.47;106345;1258;99370;-79
2024/02/22 07:39:20;;;;;;;27.10;13.70;;;;;;;6.16;100.00;99596.70;106682;1260;97941;-81
2024/02/22 07:42:05;;;;;;;27.40;13.20;;;;;;;6.21;100.00;99593.98;106751;1257;98049;-79
2024/02/22 07:44:51;;;;;;;25.70;14.00;;;;;;;6.27;100.00;99588.92;105416;1265;98481;-78
2024/02/22 07:47:36;;;;;;;26.10;14.30;;;;;;;6.31;100.00;99585.42;105794;1257;101339;-78
2024/02/22 07:50:23;;;;;;;26.00;13.30;;;;;;;6.36;100.00;99584.98;106218;1261;99091;-78
2024/02/22 07:53:09;;;;;;;25.80;13.70;;;;;;;6.41;100.00;99585.02;107781;1257;98745;-79
2024/02/22 07:55:54;;;;;;;26.20;12.90;;;;;;;6.47;100.00;99580.06;106162;1257;98737;-79
2024/02/22 07:58:46;;;;;;;22.00;13.20;;;;;;;6.53;100.00;99579.85;106041;1262;97945;-78
2024/02/22 08:01:31;;;;;;;23.30;13.30;;;;;;;6.58;100.00;99575.50;106010;1257;101365;-78
2024/02/22 08:04:19;;;;;;;26.80;14.50;;;;;;;6.64;100.00;99574.60;105886;1258;100464;-79
2024/02/22 08:07:05;;;;;;;23.80;12.20;;;;;;;6.70;100.00;99571.55;106343;1262;98005;-81
2024/02/22 08:09:50;;;;;;;24.30;11.90;;;;;;;6.78;100.00;99573.77;106986;1262;96033;-80
2024/02/22 08:12:36;;;;;;;32.20;16.80;;;;;;;6.88;100.00;99568.48;106803;1257;98006;-79
2024/02/22 08:15:21;;;;;;;32.00;18.30;;;;;;;6.95;100.00;99568.07;106987;1257;101456;-80
2024/02/22 08:18:07;;;;;;;26.40;13.80;;;;;;;7.01;100.00;99564.94;107003;1257;99480;-81
2024/02/22 08:20:53;;;;;;;28.50;13.40;;;;;;;7.09;100.00;99562.27;106850;1260;97931;-79
2024/02/22 08:23:38;;;;;;;30.90;15.80;;;;;;;7.16;100.00;99557.18;107014;1257;98051;-80
2024/02/22 08:26:24;;;;;;;27.40;16.30;;;;;;;7.21;100.00;99553.27;106654;1259;99604;-78
2024/02/22 08:29:09;;;;;;;86.90;38.60;;;;;;;7.29;100.00;99552.68;105970;1257;102815;-79
2024/02/22 08:31:55;;;;;;;46.20;25.10;;;;;;;7.39;100.00;99544.45;105740;1262;100064;-78
2024/02/22 08:34:40;;;;;;;31.80;17.20;;;;;;;7.49;100.00;99538.34;105804;1262;98621;-78
2024/02/22 08:37:26;;;;;;;27.80;14.70;;;;;;;7.60;100.00;99537.66;105897;1257;97953;-78
2024/02/22 08:40:12;;;;;;;104.20;56.20;;;;;;;7.71;100.00;99537.25;105987;1257;97941;-78
2024/02/22 08:43:00;;;;;;;236.10;143.50;;;;;;;7.81;100.00;99534.13;106054;1262;101377;-80
2024/02/22 08:45:48;;;;;;;86.90;54.10;;;;;;;7.86;100.00;99532.84;106176;1257;99099;-78
2024/02/22 08:48:35;;;;;;;60.50;39.50;;;;;;;7.86;100.00;99531.16;105737;1257;97872;-78
2024/02/22 08:51:21;;;;;;;24.60;14.40;;;;;;;7.86;100.00;99532.39;105564;1262;98790;-80
2024/02/22 08:54:06;;;;;;;19.20;10.60;;;;;;;7.88;100.00;99532.55;105707;1257;97865;-76
2024/02/22 08:56:52;;;;;;;23.80;12.80;;;;;;;7.90;100.00;99536.71;105773;1258;101380;-81
2024/02/22 08:59:37;;;;;;;23.40;14.10;;;;;;;7.92;100.00;99537.67;106405;1261;99058;-79
2024/02/22 09:02:23;;;;;;;22.00;12.30;;;;;;;7.94;100.00;99535.11;105860;1257;98419;-79
2024/02/22 09:05:10;;;;;;;21.50;12.00;;;;;;;7.95;100.00;99530.73;105986;1257;97852;-79
2024/02/22 09:07:55;;;;;;;25.20;13.30;;;;;;;7.96;100.00;99525.06;105995;1256;98516;-78
2024/02/22 09:10:41;;;;;;;21.40;12.30;;;;;;;7.97;100.00;99513.34;105836;1262;101384;-78
2024/02/22 09:13:27;;;;;;;17.60;9.90;;;;;;;7.99;100.00;99509.59;105803;1262;99141;-78
2024/02/22 09:16:12;;;;;;;21.20;10.40;;;;;;;8.02;100.00;99504.59;105848;1260;97971;-78
2024/02/22 09:18:58;;;;;;;20.90;12.60;;;;;;;8.06;100.00;99502.07;106215;1262;97976;-79
2024/02/22 09:21:46;;;;;;;17.50;11.80;;;;;;;8.10;100.00;99499.05;106372;1257;97884;-79
2024/02/22 09:24:31;;;;;;;21.30;11.70;;;;;;;8.13;100.00;99491.02;106041;1256;101366;-78
2024/02/22 09:27:17;;;;;;;26.70;13.10;;;;;;;8.16;100.00;99482.30;105990;1257;99130;-78
2024/02/22 09:30:03;;;;;;;22.50;12.90;;;;;;;8.18;100.00;99483.06;105947;1260;98918;-79
2024/02/22 09:32:51;;;;;;;20.30;11.30;;;;;;;8.19;100.00;99486.83;105870;1256;97885;-78
2024/02/22 09:35:37;;;;;;;23.10;11.40;;;;;;;8.19;100.00;99487.27;105769;1260;97868;-77
2024/02/22 09:38:22;;;;;;;23.30;12.80;;;;;;;8.19;100.00;99481.25;105270;1258;102042;-78
2024/02/22 09:41:09;;;;;;;19.10;10.90;;;;;;;8.19;100.00;99477.02;105851;1257;99154;-80
2024/02/22 09:43:56;;;;;;;20.20;9.80;;;;;;;8.21;100.00;99469.72;106396;1261;97947;-83
2024/02/22 09:46:48;;;;;;;16.90;9.90;;;;;;;8.22;100.00;99462.05;106250;1262;97984;-81
2024/02/22 09:49:34;;;;;;;19.30;9.60;;;;;;;8.26;100.00;99459.67;106347;1257;98854;-80
2024/02/22 09:52:21;;;;;;;20.00;10.40;;;;;;;8.31;100.00;99455.18;106234;1259;101402;-83
2024/02/22 09:55:10;;;;;;;17.30;9.90;;;;;;;8.37;100.00;99450.13;106133;1257;100436;-83
2024/02/22 09:57:56;;;;;;;17.90;9.10;;;;;;;8.44;100.00;99442.63;106013;1259;97980;-84
2024/02/22 10:00:42;;;;;;;16.50;8.50;;;;;;;8.51;100.00;99434.69;105755;1264;98140;-81
2024/02/22 10:03:31;;;;;;;16.90;8.90;;;;;;;8.59;100.00;99434.21;106056;1257;98402;-83
2024/02/22 10:06:19;;;;;;;15.20;8.30;;;;;;;8.67;100.00;99435.51;105813;1259;102659;-82
2024/02/22 10:09:06;;;;;;;16.30;9.30;;;;;;;8.73;100.00;99431.08;106042;1257;100428;-82
2024/02/22 10:11:51;;;;;;;16.00;9.90;;;;;;;8.78;100.00;99425.25;105893;1264;99014;-81
2024/02/22 10:14:37;;;;;;;14.40;8.70;;;;;;;8.82;100.00;99422.41;105748;1257;98494;-82
2024/02/22 10:17:30;;;;;;;16.70;8.50;;;;;;;8.85;100.00;99422.91;106189;1257;97998;-83
2024/02/22 10:20:18;;;;;;;14.90;8.70;;;;;;;8.88;100.00;99414.50;105977;1261;101761;-82
2024/02/22 10:23:08;;;;;;;16.60;8.90;;;;;;;8.91;100.00;99405.01;106398;1257;99904;-79
2024/02/22 10:26:02;;;;;;;12.20;7.90;;;;;;;8.94;100.00;99401.35;106209;1262;98441;-82
2024/02/22 10:28:55;;;;;;;15.40;8.10;;;;;;;8.98;100.00;99395.17;105934;1257;97948;-81
2024/02/22 10:31:47;;;;;;;15.60;7.60;;;;;;;9.00;100.00;99399.16;106211;1256;97897;-82
2024/02/22 10:34:33;;;;;;;17.00;8.60;;;;;;;9.01;100.00;99398.18;106231;1262;101422;-83
2024/02/22 10:37:19;;;;;;;15.60;8.20;;;;;;;9.01;100.00;99396.13;105900;1257;99384;-84
2024/02/22 10:40:08;;;;;;;17.60;9.60;;;;;;;9.01;100.00;99393.63;106123;1257;98666;-80
2024/02/22 10:42:55;;;;;;;14.60;8.60;;;;;;;9.02;100.00;99390.34;106587;1257;97865;-88
2024/02/22 10:45:42;;;;;;;16.70;8.70;;;;;;;9.02;100.00;99386.23;107012;1260;96294;-87
2024/02/22 10:48:33;;;;;;;16.20;9.30;;;;;;;9.03;100.00;99380.81;106564;1257;104144;-85
2024/02/22 10:51:21;;;;;;;13.70;9.10;;;;;;;9.04;100.00;99375.80;105545;1261;100502;-78
2024/02/22 10:54:11;;;;;;;23.50;14.30;;;;;;;9.07;100.00;99365.27;105261;1259;98643;-78
2024/02/22 10:56:58;;;;;;;19.80;10.90;;;;;;;9.10;100.00;99355.40;105688;1257;97947;-80
2024/02/22 10:59:47;;;;;;;16.30;8.70;;;;;;;9.13;100.00;99349.64;105746;1265;98505;-84
2024/02/22 11:02:34;;;;;;;13.30;8.10;;;;;;;9.15;100.00;99349.88;107147;1257;102760;-84
2024/02/22 11:05:20;;;;;;;14.80;8.50;;;;;;;9.14;100.00;99347.13;108230;1257;99225;-84
2024/02/22 11:08:06;;;;;;;15.20;8.70;;;;;;;9.16;100.00;99341.20;107222;1257;97953;-85
2024/02/22 11:11:07;;;;;;;12.10;7.80;;;;;;;9.18;100.00;99336.81;105882;1259;98032;-80
2024/02/22 11:13:56;;;;;;;;;;;;;;;9.20;100.00;99340.34;106175;1262;99224;-81
2024/02/22 11:16:42;;;;;;;14.90;8.70;;;;;;;9.19;100.00;99337.97;106171;1257;102301;-80
2024/02/22 11:19:29;;;;;;;13.70;8.40;;;;;;;9.20;100.00;99327.68;106544;1257;99120;-82
2024/02/22 11:22:16;;;;;;;11.70;6.90;;;;;;;9.21;100.00;99319.38;106528;1257;97804;-87
2024/02/22 11:25:07;;;;;;;15.60;7.90;;;;;;;9.21;100.00;99313.27;105956;1258;98038;-84
2024/02/22 11:27:58;;;;;;;12.70;7.50;;;;;;;9.23;100.00;99308.08;105971;1262;98441;-82
2024/02/22 11:30:44;;;;;;;14.10;7.00;;;;;;;9.24;100.00;99308.98;106048;1260;101351;-84
2024/02/22 11:33:29;;;;;;;10.50;6.70;;;;;;;9.25;100.00;99306.63;106215;1257;100435;-82
2024/02/22 11:36:16;;;;;;;12.80;6.90;;;;;;;9.28;100.00;99302.64;105986;1257;97958;-81
2024/02/22 11:39:06;;;;;;;15.70;8.20;;;;;;;9.32;100.00;99295.88;106022;1264;97928;-81
2024/02/22 11:41:52;;;;;;;12.20;7.20;;;;;;;9.36;100.00;99290.52;106104;1262;96902;-82
2024/02/22 11:44:37;;;;;;;11.90;7.30;;;;;;;9.41;100.00;99283.60;106087;1259;101403;-80
2024/02/22 11:47:23;;;;;;;16.40;7.90;;;;;;;9.47;100.00;99280.08;105983;1257;99332;-81
2024/02/22 11:50:09;;;;;;;9.70;6.60;;;;;;;9.54;100.00;99280.84;105958;1257;99750;-81
2024/02/22 11:52:58;;;;;;;13.60;8.20;;;;;;;9.58;100.00;99272.54;105823;1264;98563;-81
2024/02/22 11:55:50;;;;;;;12.70;7.00;;;;;;;9.61;100.00;99270.89;106025;1262;97972;-82
2024/02/22 11:58:38;;;;;;;15.60;9.30;;;;;;;9.63;100.00;99265.17;105912;1259;102308;-81
2024/02/22 12:01:27;;;;;;;11.40;6.50;;;;;;;9.65;100.00;99261.20;106132;1257;100284;-80
2024/02/22 12:04:14;;;;;;;12.00;8.10;;;;;;;9.67;100.00;99258.27;106431;1257;97999;-78
2024/02/22 12:07:03;;;;;;;13.40;6.20;;;;;;;9.69;100.00;99253.12;106503;1257;98031;-80
2024/02/22 12:09:49;;;;;;;12.70;5.60;;;;;;;9.69;100.00;99251.80;106571;1257;98479;-83
2024/02/22 12:12:35;;;;;;;13.10;6.20;;;;;;;9.71;100.00;99248.05;106315;1261;101358;-79
2024/02/22 12:15:21;;;;;;;12.80;5.80;;;;;;;9.73;100.00;99247.48;106031;1257;99294;-78
2024/02/22 12:18:06;;;;;;;9.00;5.90;;;;;;;9.73;100.00;99244.51;105696;1257;99013;-78
2024/02/22 12:20:55;;;;;;;8.10;5.10;;;;;;;9.75;100.00;99243.67;105714;1258;97993;-77
2024/02/22 12:23:41;;;;;;;9.70;5.60;;;;;;;9.76;100.00;99244.11;105625;1259;98089;-77
2024/02/22 12:26:26;;;;;;;9.60;5.90;;;;;;;9.76;100.00;99246.10;105578;1257;101237;-78
2024/02/22 12:29:12;;;;;;;14.00;5.70;;;;;;;9.75;100.00;99239.65;105798;1257;100145;-83
2024/02/22 12:32:02;;;;;;;10.20;5.50;;;;;;;9.74;100.00;99236.36;105988;1257;98983;-82
2024/02/22 12:34:53;;;;;;;10.60;6.50;;;;;;;9.73;100.00;99237.43;105893;1257;97990;-80
2024/02/22 12:37:38;;;;;;;9.70;6.10;;;;;;;9.71;100.00;99238.22;106434;1262;97916;-81